sensor_id;sensor_type;location;lat;lon;timestamp;temperature;humidity
212;DHT22;16228;48.800;9.002;2022-07-19T00:02:03;17.20;96.90
212;DHT22;16228;48.800;9.002;2022-07-19T00:04:31;17.20;96.90
212;DHT22;16228;48.800;9.002;2022-07-19T00:06:59;17.20;96.90
212;DHT22;16228;48.800;9.002;2022-07-19T00:09:26;17.20;96.90
212;DHT22;16228;48.800;9.002;2022-07-19T00:11:54;17.10;96.90
212;DHT22;16228;48.800;9.002;2022-07-19T00:14:21;17.00;96.90
212;DHT22;16228;48.800;9.002;2022-07-19T00:16:49;16.90;96.90
212;DHT22;16228;48.800;9.002;2022-07-19T00:19:16;16.80;96.90
212;DHT22;16228;48.800;9.002;2022-07-19T00:21:43;16.90;96.90
212;DHT22;16228;48.800;9.002;2022-07-19T00:24:12;16.80;96.90
212;DHT22;16228;48.800;9.002;2022-07-19T00:26:39;16.80;96.90
212;DHT22;16228;48.800;9.002;2022-07-19T00:29:05;16.90;96.90
212;DHT22;16228;48.800;9.002;2022-07-19T00:31:32;16.90;96.90
212;DHT22;16228;48.800;9.002;2022-07-19T00:33:59;16.90;96.90
212;DHT22;16228;48.800;9.002;2022-07-19T00:36:26;16.90;96.90
212;DHT22;16228;48.800;9.002;2022-07-19T00:38:54;16.80;96.90
212;DHT22;16228;48.800;9.002;2022-07-19T00:41:22;16.80;96.90
212;DHT22;16228;48.800;9.002;2022-07-19T00:43:49;16.70;96.90
212;DHT22;16228;48.800;9.002;2022-07-19T00:46:18;16.70;96.90
212;DHT22;16228;48.800;9.002;2022-07-19T00:48:46;16.70;96.90
212;DHT22;16228;48.800;9.002;2022-07-19T00:51:14;16.70;96.90
212;DHT22;16228;48.800;9.002;2022-07-19T00:53:42;16.70;96.90
212;DHT22;16228;48.800;9.002;2022-07-19T00:56:10;16.70;96.90
212;DHT22;16228;48.800;9.002;2022-07-19T00:58:40;16.60;96.90
212;DHT22;16228;48.800;9.002;2022-07-19T01:01:09;16.50;96.90
212;DHT22;16228;48.800;9.002;2022-07-19T01:03:37;16.50;96.90
212;DHT22;16228;48.800;9.002;2022-07-19T01:06:05;16.50;96.90
212;DHT22;16228;48.800;9.002;2022-07-19T01:08:32;16.50;96.90
212;DHT22;16228;48.800;9.002;2022-07-19T01:10:59;16.40;96.90
212;DHT22;16228;48.800;9.002;2022-07-19T01:13:28;16.30;96.90
212;DHT22;16228;48.800;9.002;2022-07-19T01:15:57;16.30;96.90
212;DHT22;16228;48.800;9.002;2022-07-19T01:18:24;16.30;96.90
212;DHT22;16228;48.800;9.002;2022-07-19T01:20:51;16.20;96.90
212;DHT22;16228;48.800;9.002;2022-07-19T01:23:20;16.20;96.90
212;DHT22;16228;48.800;9.002;2022-07-19T01:25:47;16.10;96.90
212;DHT22;16228;48.800;9.002;2022-07-19T01:28:14;16.00;96.90
212;DHT22;16228;48.800;9.002;2022-07-19T01:30:41;16.00;96.90
212;DHT22;16228;48.800;9.002;2022-07-19T01:33:08;15.90;96.90
212;DHT22;16228;48.800;9.002;2022-07-19T01:35:35;15.80;96.90
212;DHT22;16228;48.800;9.002;2022-07-19T01:38:02;15.70;96.90
212;DHT22;16228;48.800;9.002;2022-07-19T01:40:30;15.70;96.90
212;DHT22;16228;48.800;9.002;2022-07-19T01:42:59;15.70;96.90
212;DHT22;16228;48.800;9.002;2022-07-19T01:45:26;15.70;96.90
212;DHT22;16228;48.800;9.002;2022-07-19T01:47:53;15.70;96.90
212;DHT22;16228;48.800;9.002;2022-07-19T01:50:20;15.60;96.90
212;DHT22;16228;48.800;9.002;2022-07-19T01:52:47;15.60;96.90
212;DHT22;16228;48.800;9.002;2022-07-19T01:55:14;15.60;96.90
212;DHT22;16228;48.800;9.002;2022-07-19T01:57:43;15.60;96.90
212;DHT22;16228;48.800;9.002;2022-07-19T02:00:11;15.60;96.90
212;DHT22;16228;48.800;9.002;2022-07-19T02:02:38;15.60;96.90
212;DHT22;16228;48.800;9.002;2022-07-19T02:05:05;15.60;96.90
212;DHT22;16228;48.800;9.002;2022-07-19T02:07:33;15.50;96.90
212;DHT22;16228;48.800;9.002;2022-07-19T02:10:00;15.50;96.90
212;DHT22;16228;48.800;9.002;2022-07-19T02:12:27;15.50;96.90
212;DHT22;16228;48.800;9.002;2022-07-19T02:14:56;15.50;96.90
212;DHT22;16228;48.800;9.002;2022-07-19T02:17:23;15.50;96.90
212;DHT22;16228;48.800;9.002;2022-07-19T02:19:49;15.50;96.90
212;DHT22;16228;48.800;9.002;2022-07-19T02:22:17;15.50;96.90
212;DHT22;16228;48.800;9.002;2022-07-19T02:24:43;15.50;96.90
212;DHT22;16228;48.800;9.002;2022-07-19T02:27:11;15.50;96.90
212;DHT22;16228;48.800;9.002;2022-07-19T02:29:38;15.50;96.90
212;DHT22;16228;48.800;9.002;2022-07-19T02:32:07;15.60;96.90
212;DHT22;16228;48.800;9.002;2022-07-19T02:34:34;15.50;96.90
212;DHT22;16228;48.800;9.002;2022-07-19T02:37:01;15.50;96.90
212;DHT22;16228;48.800;9.002;2022-07-19T02:39:28;15.40;96.90
212;DHT22;16228;48.800;9.002;2022-07-19T02:41:55;15.30;96.90
212;DHT22;16228;48.800;9.002;2022-07-19T02:44:22;15.40;96.90
212;DHT22;16228;48.800;9.002;2022-07-19T02:46:49;15.30;96.90
212;DHT22;16228;48.800;9.002;2022-07-19T02:49:18;15.40;96.90
212;DHT22;16228;48.800;9.002;2022-07-19T02:51:46;15.40;96.90
212;DHT22;16228;48.800;9.002;2022-07-19T02:54:13;15.40;96.90
212;DHT22;16228;48.800;9.002;2022-07-19T02:56:40;15.40;96.90
212;DHT22;16228;48.800;9.002;2022-07-19T02:59:07;15.30;96.90
212;DHT22;16228;48.800;9.002;2022-07-19T03:01:34;15.30;96.90
212;DHT22;16228;48.800;9.002;2022-07-19T03:04:01;15.20;96.90
212;DHT22;16228;48.800;9.002;2022-07-19T03:06:29;15.20;96.90
212;DHT22;16228;48.800;9.002;2022-07-19T03:08:56;15.10;96.90
212;DHT22;16228;48.800;9.002;2022-07-19T03:11:23;15.10;96.90
212;DHT22;16228;48.800;9.002;2022-07-19T03:13:50;15.00;96.90
212;DHT22;16228;48.800;9.002;2022-07-19T03:16:17;15.00;96.90
212;DHT22;16228;48.800;9.002;2022-07-19T03:18:44;14.90;96.90
212;DHT22;16228;48.800;9.002;2022-07-19T03:21:11;14.80;96.90
212;DHT22;16228;48.800;9.002;2022-07-19T03:23:39;14.80;96.90
212;DHT22;16228;48.800;9.002;2022-07-19T03:26:06;14.80;96.90
212;DHT22;16228;48.800;9.002;2022-07-19T03:28:34;14.80;96.90
212;DHT22;16228;48.800;9.002;2022-07-19T03:31:01;14.80;96.90
212;DHT22;16228;48.800;9.002;2022-07-19T03:33:28;14.80;96.90
212;DHT22;16228;48.800;9.002;2022-07-19T03:35:55;14.80;96.90
212;DHT22;16228;48.800;9.002;2022-07-19T03:38:22;14.70;96.90
212;DHT22;16228;48.800;9.002;2022-07-19T03:40:51;14.70;96.90
212;DHT22;16228;48.800;9.002;2022-07-19T03:43:18;14.70;96.90
212;DHT22;16228;48.800;9.002;2022-07-19T03:45:46;14.70;96.90
212;DHT22;16228;48.800;9.002;2022-07-19T03:48:13;14.80;96.90
212;DHT22;16228;48.800;9.002;2022-07-19T03:50:40;14.80;96.90
212;DHT22;16228;48.800;9.002;2022-07-19T03:53:07;14.80;96.90
212;DHT22;16228;48.800;9.002;2022-07-19T03:55:34;14.60;96.90
212;DHT22;16228;48.800;9.002;2022-07-19T03:58:03;14.60;96.90
212;DHT22;16228;48.800;9.002;2022-07-19T04:00:30;14.60;96.90
212;DHT22;16228;48.800;9.002;2022-07-19T04:02:57;14.60;96.90
212;DHT22;16228;48.800;9.002;2022-07-19T04:05:25;14.70;96.90
212;DHT22;16228;48.800;9.002;2022-07-19T04:07:52;14.70;96.90
212;DHT22;16228;48.800;9.002;2022-07-19T04:10:19;14.70;96.90
212;DHT22;16228;48.800;9.002;2022-07-19T04:12:46;14.70;96.90
212;DHT22;16228;48.800;9.002;2022-07-19T04:15:14;14.70;96.90
212;DHT22;16228;48.800;9.002;2022-07-19T04:17:41;14.70;96.90
212;DHT22;16228;48.800;9.002;2022-07-19T04:20:09;14.70;96.90
212;DHT22;16228;48.800;9.002;2022-07-19T04:22:36;14.80;96.90
212;DHT22;16228;48.800;9.002;2022-07-19T04:25:04;14.80;96.90
212;DHT22;16228;48.800;9.002;2022-07-19T04:27:31;14.90;96.90
212;DHT22;16228;48.800;9.002;2022-07-19T04:29:58;14.90;96.90
212;DHT22;16228;48.800;9.002;2022-07-19T04:32:27;15.00;96.90
212;DHT22;16228;48.800;9.002;2022-07-19T04:34:55;15.00;96.90
212;DHT22;16228;48.800;9.002;2022-07-19T04:37:22;15.10;96.90
212;DHT22;16228;48.800;9.002;2022-07-19T04:39:49;15.20;96.90
212;DHT22;16228;48.800;9.002;2022-07-19T04:42:16;15.30;96.90
212;DHT22;16228;48.800;9.002;2022-07-19T04:44:43;15.30;96.90
212;DHT22;16228;48.800;9.002;2022-07-19T04:47:11;15.30;96.90
212;DHT22;16228;48.800;9.002;2022-07-19T04:49:39;15.30;96.90
212;DHT22;16228;48.800;9.002;2022-07-19T04:52:06;15.40;96.90
212;DHT22;16228;48.800;9.002;2022-07-19T04:54:33;15.40;96.90
212;DHT22;16228;48.800;9.002;2022-07-19T04:57:00;15.40;96.90
212;DHT22;16228;48.800;9.002;2022-07-19T04:59:27;15.50;96.90
212;DHT22;16228;48.800;9.002;2022-07-19T05:01:54;15.60;96.90
212;DHT22;16228;48.800;9.002;2022-07-19T05:04:21;15.70;96.90
212;DHT22;16228;48.800;9.002;2022-07-19T05:06:49;15.90;96.90
212;DHT22;16228;48.800;9.002;2022-07-19T05:09:22;16.10;96.90
212;DHT22;16228;48.800;9.002;2022-07-19T05:11:49;16.20;96.90
212;DHT22;16228;48.800;9.002;2022-07-19T05:14:17;16.30;96.90
212;DHT22;16228;48.800;9.002;2022-07-19T05:16:44;16.50;96.90
212;DHT22;16228;48.800;9.002;2022-07-19T05:19:12;16.60;96.90
212;DHT22;16228;48.800;9.002;2022-07-19T05:21:39;16.70;96.90
212;DHT22;16228;48.800;9.002;2022-07-19T05:24:07;16.90;96.90
212;DHT22;16228;48.800;9.002;2022-07-19T05:26:34;17.00;96.90
212;DHT22;16228;48.800;9.002;2022-07-19T05:29:02;17.10;96.90
212;DHT22;16228;48.800;9.002;2022-07-19T05:31:29;17.20;96.90
212;DHT22;16228;48.800;9.002;2022-07-19T05:33:56;17.40;96.90
212;DHT22;16228;48.800;9.002;2022-07-19T05:36:23;17.90;96.90
212;DHT22;16228;48.800;9.002;2022-07-19T05:38:50;18.30;96.90
212;DHT22;16228;48.800;9.002;2022-07-19T05:41:20;18.60;96.90
212;DHT22;16228;48.800;9.002;2022-07-19T05:43:48;18.90;96.90
212;DHT22;16228;48.800;9.002;2022-07-19T05:46:15;19.20;96.90
212;DHT22;16228;48.800;9.002;2022-07-19T05:48:43;19.60;96.90
212;DHT22;16228;48.800;9.002;2022-07-19T05:51:10;20.20;96.90
212;DHT22;16228;48.800;9.002;2022-07-19T05:53:37;20.60;96.90
212;DHT22;16228;48.800;9.002;2022-07-19T05:56:05;21.00;96.90
212;DHT22;16228;48.800;9.002;2022-07-19T05:58:34;21.30;96.90
212;DHT22;16228;48.800;9.002;2022-07-19T06:01:01;21.50;96.90
212;DHT22;16228;48.800;9.002;2022-07-19T06:03:49;21.60;96.90
212;DHT22;16228;48.800;9.002;2022-07-19T06:06:17;21.70;96.90
212;DHT22;16228;48.800;9.002;2022-07-19T06:08:44;21.60;96.90
212;DHT22;16228;48.800;9.002;2022-07-19T06:11:12;21.70;96.90
212;DHT22;16228;48.800;9.002;2022-07-19T06:13:41;21.80;96.90
212;DHT22;16228;48.800;9.002;2022-07-19T06:16:08;22.00;96.90
212;DHT22;16228;48.800;9.002;2022-07-19T06:18:35;22.20;96.50
212;DHT22;16228;48.800;9.002;2022-07-19T06:21:03;22.50;95.70
212;DHT22;16228;48.800;9.002;2022-07-19T06:23:30;22.60;94.90
212;DHT22;16228;48.800;9.002;2022-07-19T06:25:57;22.80;94.30
212;DHT22;16228;48.800;9.002;2022-07-19T06:28:24;22.90;93.20
212;DHT22;16228;48.800;9.002;2022-07-19T06:30:53;23.10;93.50
212;DHT22;16228;48.800;9.002;2022-07-19T06:33:20;23.40;92.60
212;DHT22;16228;48.800;9.002;2022-07-19T06:35:48;23.70;91.90
212;DHT22;16228;48.800;9.002;2022-07-19T06:38:15;24.00;92.40
212;DHT22;16228;48.800;9.002;2022-07-19T06:40:42;24.20;91.30
212;DHT22;16228;48.800;9.002;2022-07-19T06:43:10;24.30;90.80
212;DHT22;16228;48.800;9.002;2022-07-19T06:45:37;24.40;91.30
212;DHT22;16228;48.800;9.002;2022-07-19T06:48:06;24.50;90.70
212;DHT22;16228;48.800;9.002;2022-07-19T06:50:33;24.80;91.50
212;DHT22;16228;48.800;9.002;2022-07-19T06:53:00;25.20;86.60
212;DHT22;16228;48.800;9.002;2022-07-19T06:55:27;25.90;85.80
212;DHT22;16228;48.800;9.002;2022-07-19T06:57:54;27.00;83.80
212;DHT22;16228;48.800;9.002;2022-07-19T07:00:21;28.20;80.90
212;DHT22;16228;48.800;9.002;2022-07-19T07:02:48;29.20;79.40
212;DHT22;16228;48.800;9.002;2022-07-19T07:05:17;30.10;78.60
212;DHT22;16228;48.800;9.002;2022-07-19T07:07:44;31.00;71.70
212;DHT22;16228;48.800;9.002;2022-07-19T07:10:11;32.00;70.80
212;DHT22;16228;48.800;9.002;2022-07-19T07:12:38;32.90;72.10
212;DHT22;16228;48.800;9.002;2022-07-19T07:15:06;33.80;67.30
212;DHT22;16228;48.800;9.002;2022-07-19T07:17:37;34.70;67.90
212;DHT22;16228;48.800;9.002;2022-07-19T07:20:06;35.50;67.00
212;DHT22;16228;48.800;9.002;2022-07-19T07:22:35;35.90;62.50
212;DHT22;16228;48.800;9.002;2022-07-19T07:25:02;36.10;56.70
212;DHT22;16228;48.800;9.002;2022-07-19T07:27:29;36.00;59.20
212;DHT22;16228;48.800;9.002;2022-07-19T07:29:56;36.40;61.20
212;DHT22;16228;48.800;9.002;2022-07-19T07:32:23;36.40;57.80
212;DHT22;16228;48.800;9.002;2022-07-19T07:34:52;36.70;54.50
212;DHT22;16228;48.800;9.002;2022-07-19T07:37:23;37.00;59.10
212;DHT22;16228;48.800;9.002;2022-07-19T07:39:54;37.50;54.50
212;DHT22;16228;48.800;9.002;2022-07-19T07:42:21;37.20;54.90
212;DHT22;16228;48.800;9.002;2022-07-19T07:44:48;37.40;51.70
212;DHT22;16228;48.800;9.002;2022-07-19T07:47:15;37.50;52.60
212;DHT22;16228;48.800;9.002;2022-07-19T07:49:42;37.20;53.70
212;DHT22;16228;48.800;9.002;2022-07-19T07:52:09;37.30;55.00
212;DHT22;16228;48.800;9.002;2022-07-19T07:54:36;37.60;55.70
212;DHT22;16228;48.800;9.002;2022-07-19T07:57:05;38.10;58.10
212;DHT22;16228;48.800;9.002;2022-07-19T07:59:32;38.90;60.10
212;DHT22;16228;48.800;9.002;2022-07-19T08:01:59;39.40;52.20
212;DHT22;16228;48.800;9.002;2022-07-19T08:04:26;40.00;51.70
212;DHT22;16228;48.800;9.002;2022-07-19T08:06:53;39.80;51.20
212;DHT22;16228;48.800;9.002;2022-07-19T08:09:20;39.80;55.80
212;DHT22;16228;48.800;9.002;2022-07-19T08:11:48;40.30;52.80
212;DHT22;16228;48.800;9.002;2022-07-19T08:14:16;40.40;50.70
212;DHT22;16228;48.800;9.002;2022-07-19T08:16:43;40.80;48.50
212;DHT22;16228;48.800;9.002;2022-07-19T08:19:10;40.80;48.30
212;DHT22;16228;48.800;9.002;2022-07-19T08:21:37;40.90;51.10
212;DHT22;16228;48.800;9.002;2022-07-19T08:24:05;40.80;45.70
212;DHT22;16228;48.800;9.002;2022-07-19T08:26:32;41.30;48.90
212;DHT22;16228;48.800;9.002;2022-07-19T08:28:59;41.80;53.20
212;DHT22;16228;48.800;9.002;2022-07-19T08:31:27;42.30;45.70
212;DHT22;16228;48.800;9.002;2022-07-19T08:33:54;42.50;49.80
212;DHT22;16228;48.800;9.002;2022-07-19T08:36:21;42.70;48.50
212;DHT22;16228;48.800;9.002;2022-07-19T08:38:48;43.00;49.10
212;DHT22;16228;48.800;9.002;2022-07-19T08:41:15;43.60;47.90
212;DHT22;16228;48.800;9.002;2022-07-19T08:43:42;43.80;42.40
212;DHT22;16228;48.800;9.002;2022-07-19T08:46:09;42.70;44.10
212;DHT22;16228;48.800;9.002;2022-07-19T08:48:37;42.60;46.90
212;DHT22;16228;48.800;9.002;2022-07-19T08:51:05;42.80;44.10
212;DHT22;16228;48.800;9.002;2022-07-19T08:53:34;42.40;41.70
212;DHT22;16228;48.800;9.002;2022-07-19T08:56:04;41.40;45.40
212;DHT22;16228;48.800;9.002;2022-07-19T08:58:51;41.50;44.20
212;DHT22;16228;48.800;9.002;2022-07-19T09:01:18;41.80;44.60
212;DHT22;16228;48.800;9.002;2022-07-19T09:04:09;42.40;47.20
212;DHT22;16228;48.800;9.002;2022-07-19T09:06:41;43.10;45.10
212;DHT22;16228;48.800;9.002;2022-07-19T09:09:09;43.10;44.20
212;DHT22;16228;48.800;9.002;2022-07-19T09:11:39;43.00;44.70
212;DHT22;16228;48.800;9.002;2022-07-19T09:14:14;43.60;44.70
212;DHT22;16228;48.800;9.002;2022-07-19T09:16:49;44.30;42.70
212;DHT22;16228;48.800;9.002;2022-07-19T09:19:18;43.40;41.50
212;DHT22;16228;48.800;9.002;2022-07-19T09:21:56;42.90;41.20
212;DHT22;16228;48.800;9.002;2022-07-19T09:24:24;42.90;42.60
212;DHT22;16228;48.800;9.002;2022-07-19T09:26:59;42.70;42.50
212;DHT22;16228;48.800;9.002;2022-07-19T09:29:27;43.00;42.30
212;DHT22;16228;48.800;9.002;2022-07-19T09:31:59;42.20;44.00
212;DHT22;16228;48.800;9.002;2022-07-19T09:34:28;42.60;45.90
212;DHT22;16228;48.800;9.002;2022-07-19T09:37:16;41.80;42.00
212;DHT22;16228;48.800;9.002;2022-07-19T09:39:45;42.10;46.40
212;DHT22;16228;48.800;9.002;2022-07-19T09:42:14;42.80;46.20
212;DHT22;16228;48.800;9.002;2022-07-19T09:44:41;43.40;44.40
212;DHT22;16228;48.800;9.002;2022-07-19T09:47:08;43.70;44.20
212;DHT22;16228;48.800;9.002;2022-07-19T09:49:37;43.40;43.30
212;DHT22;16228;48.800;9.002;2022-07-19T09:52:04;43.70;43.90
212;DHT22;16228;48.800;9.002;2022-07-19T09:54:31;43.80;43.00
212;DHT22;16228;48.800;9.002;2022-07-19T09:56:59;43.50;42.70
212;DHT22;16228;48.800;9.002;2022-07-19T09:59:27;43.20;43.70
212;DHT22;16228;48.800;9.002;2022-07-19T10:01:55;43.80;43.70
212;DHT22;16228;48.800;9.002;2022-07-19T10:04:24;44.70;44.30
212;DHT22;16228;48.800;9.002;2022-07-19T10:06:53;45.00;44.40
212;DHT22;16228;48.800;9.002;2022-07-19T10:09:21;44.40;42.50
212;DHT22;16228;48.800;9.002;2022-07-19T10:11:49;44.10;42.30
212;DHT22;16228;48.800;9.002;2022-07-19T10:14:17;43.90;43.30
212;DHT22;16228;48.800;9.002;2022-07-19T10:16:51;44.10;41.80
212;DHT22;16228;48.800;9.002;2022-07-19T10:19:27;44.00;43.00
212;DHT22;16228;48.800;9.002;2022-07-19T10:21:57;44.10;40.70
212;DHT22;16228;48.800;9.002;2022-07-19T10:24:45;43.70;42.00
212;DHT22;16228;48.800;9.002;2022-07-19T10:27:14;44.30;42.30
212;DHT22;16228;48.800;9.002;2022-07-19T10:29:41;45.20;41.50
212;DHT22;16228;48.800;9.002;2022-07-19T10:32:13;45.80;43.70
212;DHT22;16228;48.800;9.002;2022-07-19T10:34:41;46.50;42.40
212;DHT22;16228;48.800;9.002;2022-07-19T10:37:09;46.50;37.20
212;DHT22;16228;48.800;9.002;2022-07-19T10:39:37;46.90;41.50
212;DHT22;16228;48.800;9.002;2022-07-19T10:42:22;47.00;39.90
212;DHT22;16228;48.800;9.002;2022-07-19T10:45:12;46.50;37.60
212;DHT22;16228;48.800;9.002;2022-07-19T10:48:06;46.90;41.30
212;DHT22;16228;48.800;9.002;2022-07-19T10:50:55;47.40;40.70
212;DHT22;16228;48.800;9.002;2022-07-19T10:53:55;47.90;40.10
212;DHT22;16228;48.800;9.002;2022-07-19T10:56:30;47.70;37.30
212;DHT22;16228;48.800;9.002;2022-07-19T10:59:00;46.90;40.10
212;DHT22;16228;48.800;9.002;2022-07-19T11:01:29;46.90;38.40
212;DHT22;16228;48.800;9.002;2022-07-19T11:04:26;47.00;38.80
212;DHT22;16228;48.800;9.002;2022-07-19T11:07:14;47.30;39.20
212;DHT22;16228;48.800;9.002;2022-07-19T11:09:49;46.50;37.30
212;DHT22;16228;48.800;9.002;2022-07-19T11:12:34;46.10;39.10
212;DHT22;16228;48.800;9.002;2022-07-19T11:15:06;46.10;37.60
212;DHT22;16228;48.800;9.002;2022-07-19T11:17:34;45.60;38.30
212;DHT22;16228;48.800;9.002;2022-07-19T11:20:05;45.30;38.00
212;DHT22;16228;48.800;9.002;2022-07-19T11:22:35;45.20;40.80
212;DHT22;16228;48.800;9.002;2022-07-19T11:25:05;45.20;38.10
212;DHT22;16228;48.800;9.002;2022-07-19T11:27:33;44.20;40.40
212;DHT22;16228;48.800;9.002;2022-07-19T11:30:03;44.50;38.60
212;DHT22;16228;48.800;9.002;2022-07-19T11:32:30;44.30;39.90
212;DHT22;16228;48.800;9.002;2022-07-19T11:34:59;43.80;39.80
212;DHT22;16228;48.800;9.002;2022-07-19T11:37:28;44.40;40.80
212;DHT22;16228;48.800;9.002;2022-07-19T11:39:55;45.30;42.60
212;DHT22;16228;48.800;9.002;2022-07-19T11:42:29;46.20;43.00
212;DHT22;16228;48.800;9.002;2022-07-19T11:44:57;46.60;38.80
212;DHT22;16228;48.800;9.002;2022-07-19T11:47:24;46.10;39.60
212;DHT22;16228;48.800;9.002;2022-07-19T11:49:51;46.80;39.10
212;DHT22;16228;48.800;9.002;2022-07-19T11:52:18;47.20;41.10
212;DHT22;16228;48.800;9.002;2022-07-19T11:55:00;47.00;36.70
212;DHT22;16228;48.800;9.002;2022-07-19T11:57:28;45.90;36.80
212;DHT22;16228;48.800;9.002;2022-07-19T11:59:57;45.50;42.10
212;DHT22;16228;48.800;9.002;2022-07-19T12:02:24;46.10;39.70
212;DHT22;16228;48.800;9.002;2022-07-19T12:04:51;46.80;38.70
212;DHT22;16228;48.800;9.002;2022-07-19T12:07:18;46.80;36.10
212;DHT22;16228;48.800;9.002;2022-07-19T12:09:45;47.40;39.70
212;DHT22;16228;48.800;9.002;2022-07-19T12:12:13;47.30;39.00
212;DHT22;16228;48.800;9.002;2022-07-19T12:14:42;46.70;38.00
212;DHT22;16228;48.800;9.002;2022-07-19T12:17:12;46.50;37.80
212;DHT22;16228;48.800;9.002;2022-07-19T12:19:40;46.00;37.30
212;DHT22;16228;48.800;9.002;2022-07-19T12:22:25;45.80;36.50
212;DHT22;16228;48.800;9.002;2022-07-19T12:24:52;45.90;39.80
212;DHT22;16228;48.800;9.002;2022-07-19T12:27:19;46.60;40.10
212;DHT22;16228;48.800;9.002;2022-07-19T12:29:48;47.00;37.90
212;DHT22;16228;48.800;9.002;2022-07-19T12:32:27;46.80;38.60
212;DHT22;16228;48.800;9.002;2022-07-19T12:34:57;46.80;37.90
212;DHT22;16228;48.800;9.002;2022-07-19T12:37:26;47.10;39.20
212;DHT22;16228;48.800;9.002;2022-07-19T12:39:59;46.60;38.80
212;DHT22;16228;48.800;9.002;2022-07-19T12:42:35;46.90;39.80
212;DHT22;16228;48.800;9.002;2022-07-19T12:45:05;47.60;37.90
212;DHT22;16228;48.800;9.002;2022-07-19T12:47:32;48.10;36.60
212;DHT22;16228;48.800;9.002;2022-07-19T12:49:59;47.80;38.50
212;DHT22;16228;48.800;9.002;2022-07-19T12:52:26;47.70;37.30
212;DHT22;16228;48.800;9.002;2022-07-19T12:54:53;47.60;36.60
212;DHT22;16228;48.800;9.002;2022-07-19T12:57:20;47.00;36.00
212;DHT22;16228;48.800;9.002;2022-07-19T12:59:47;46.10;37.10
212;DHT22;16228;48.800;9.002;2022-07-19T13:02:17;44.60;38.90
212;DHT22;16228;48.800;9.002;2022-07-19T13:04:45;43.00;41.50
212;DHT22;16228;48.800;9.002;2022-07-19T13:07:12;41.90;42.20
212;DHT22;16228;48.800;9.002;2022-07-19T13:09:40;41.10;44.20
212;DHT22;16228;48.800;9.002;2022-07-19T13:12:08;39.70;43.30
212;DHT22;16228;48.800;9.002;2022-07-19T13:14:36;39.00;45.70
212;DHT22;16228;48.800;9.002;2022-07-19T13:17:04;38.50;44.90
212;DHT22;16228;48.800;9.002;2022-07-19T13:19:32;37.90;44.30
212;DHT22;16228;48.800;9.002;2022-07-19T13:21:59;37.80;46.80
212;DHT22;16228;48.800;9.002;2022-07-19T13:24:26;38.00;45.30
212;DHT22;16228;48.800;9.002;2022-07-19T13:26:53;38.60;46.20
212;DHT22;16228;48.800;9.002;2022-07-19T13:29:20;39.30;47.20
212;DHT22;16228;48.800;9.002;2022-07-19T13:31:48;40.20;45.60
212;DHT22;16228;48.800;9.002;2022-07-19T13:34:15;39.80;43.30
212;DHT22;16228;48.800;9.002;2022-07-19T13:36:43;39.40;46.50
212;DHT22;16228;48.800;9.002;2022-07-19T13:39:11;39.20;44.70
212;DHT22;16228;48.800;9.002;2022-07-19T13:41:38;38.70;46.60
212;DHT22;16228;48.800;9.002;2022-07-19T13:44:06;38.20;45.90
212;DHT22;16228;48.800;9.002;2022-07-19T13:46:33;37.90;45.60
212;DHT22;16228;48.800;9.002;2022-07-19T13:49:00;37.30;49.30
212;DHT22;16228;48.800;9.002;2022-07-19T13:51:27;36.50;47.40
212;DHT22;16228;48.800;9.002;2022-07-19T13:53:56;35.70;49.20
212;DHT22;16228;48.800;9.002;2022-07-19T13:56:23;35.40;48.10
212;DHT22;16228;48.800;9.002;2022-07-19T13:58:50;35.20;47.90
212;DHT22;16228;48.800;9.002;2022-07-19T14:01:17;35.10;49.10
212;DHT22;16228;48.800;9.002;2022-07-19T14:03:44;35.10;50.70
212;DHT22;16228;48.800;9.002;2022-07-19T14:06:13;35.00;49.60
212;DHT22;16228;48.800;9.002;2022-07-19T14:08:40;35.10;52.40
212;DHT22;16228;48.800;9.002;2022-07-19T14:11:08;35.20;51.60
212;DHT22;16228;48.800;9.002;2022-07-19T14:13:35;35.10;51.50
212;DHT22;16228;48.800;9.002;2022-07-19T14:16:03;35.00;50.30
212;DHT22;16228;48.800;9.002;2022-07-19T14:18:30;34.90;52.40
212;DHT22;16228;48.800;9.002;2022-07-19T14:20:57;35.00;50.60
212;DHT22;16228;48.800;9.002;2022-07-19T14:23:24;35.00;52.40
212;DHT22;16228;48.800;9.002;2022-07-19T14:25:51;34.80;50.00
212;DHT22;16228;48.800;9.002;2022-07-19T14:28:20;34.70;49.10
212;DHT22;16228;48.800;9.002;2022-07-19T14:30:46;34.70;52.10
212;DHT22;16228;48.800;9.002;2022-07-19T14:33:14;34.70;51.30
212;DHT22;16228;48.800;9.002;2022-07-19T14:35:41;34.70;52.10
212;DHT22;16228;48.800;9.002;2022-07-19T14:38:08;34.70;49.90
212;DHT22;16228;48.800;9.002;2022-07-19T14:40:35;34.70;50.70
212;DHT22;16228;48.800;9.002;2022-07-19T14:43:03;34.70;51.40
212;DHT22;16228;48.800;9.002;2022-07-19T14:45:31;34.80;50.30
212;DHT22;16228;48.800;9.002;2022-07-19T14:47:58;34.80;50.30
212;DHT22;16228;48.800;9.002;2022-07-19T14:50:25;34.70;51.40
212;DHT22;16228;48.800;9.002;2022-07-19T14:52:52;34.60;50.30
212;DHT22;16228;48.800;9.002;2022-07-19T14:55:20;34.60;52.00
212;DHT22;16228;48.800;9.002;2022-07-19T14:57:47;34.50;51.60
212;DHT22;16228;48.800;9.002;2022-07-19T15:00:14;34.60;50.80
212;DHT22;16228;48.800;9.002;2022-07-19T15:02:42;34.70;54.10
212;DHT22;16228;48.800;9.002;2022-07-19T15:05:09;34.60;50.20
212;DHT22;16228;48.800;9.002;2022-07-19T15:07:36;34.60;50.10
212;DHT22;16228;48.800;9.002;2022-07-19T15:10:04;34.60;51.30
212;DHT22;16228;48.800;9.002;2022-07-19T15:12:31;34.70;51.90
212;DHT22;16228;48.800;9.002;2022-07-19T15:14:58;34.80;49.50
212;DHT22;16228;48.800;9.002;2022-07-19T15:17:25;34.70;49.10
212;DHT22;16228;48.800;9.002;2022-07-19T15:19:53;34.60;49.00
212;DHT22;16228;48.800;9.002;2022-07-19T15:22:20;34.60;49.90
212;DHT22;16228;48.800;9.002;2022-07-19T15:24:47;34.60;50.60
212;DHT22;16228;48.800;9.002;2022-07-19T15:27:14;34.40;50.00
212;DHT22;16228;48.800;9.002;2022-07-19T15:29:41;34.30;49.00
212;DHT22;16228;48.800;9.002;2022-07-19T15:32:09;34.20;49.70
212;DHT22;16228;48.800;9.002;2022-07-19T15:34:37;34.30;49.50
212;DHT22;16228;48.800;9.002;2022-07-19T15:37:06;34.40;49.70
212;DHT22;16228;48.800;9.002;2022-07-19T15:39:33;34.20;48.80
212;DHT22;16228;48.800;9.002;2022-07-19T15:42:00;34.20;49.90
212;DHT22;16228;48.800;9.002;2022-07-19T15:44:27;34.20;50.20
212;DHT22;16228;48.800;9.002;2022-07-19T15:46:54;34.30;51.20
212;DHT22;16228;48.800;9.002;2022-07-19T15:49:21;34.20;49.90
212;DHT22;16228;48.800;9.002;2022-07-19T15:51:48;34.10;49.60
212;DHT22;16228;48.800;9.002;2022-07-19T15:54:17;34.20;49.60
212;DHT22;16228;48.800;9.002;2022-07-19T15:56:44;34.10;49.00
212;DHT22;16228;48.800;9.002;2022-07-19T15:59:10;34.10;50.10
212;DHT22;16228;48.800;9.002;2022-07-19T16:01:37;34.00;48.90
212;DHT22;16228;48.800;9.002;2022-07-19T16:04:05;34.00;51.00
212;DHT22;16228;48.800;9.002;2022-07-19T16:06:32;34.00;49.40
212;DHT22;16228;48.800;9.002;2022-07-19T16:08:58;34.00;48.80
212;DHT22;16228;48.800;9.002;2022-07-19T16:11:27;34.00;49.50